createdAt,value
2019-04-13T00:02:11.378Z,18.67
2019-04-13T00:04:53.259Z,19.60
2019-04-13T00:07:21.298Z,17.17
2019-04-13T00:09:50.201Z,17.40
2019-04-13T00:12:30.428Z,18.70
2019-04-13T00:14:57.664Z,17.77
2019-04-13T00:17:24.740Z,18.27
2019-04-13T00:19:51.840Z,17.37
2019-04-13T00:22:18.991Z,16.77
2019-04-13T00:24:46.268Z,16.03
2019-04-13T00:27:13.638Z,18.33
2019-04-13T00:29:40.691Z,19.47
2019-04-13T00:32:07.746Z,19.10
2019-04-13T00:34:41.275Z,19.23
2019-04-13T00:37:03.821Z,20.57
2019-04-13T00:39:30.967Z,22.60
2019-04-13T00:41:58.250Z,17.97
2019-04-13T00:44:37.534Z,19.97
2019-04-13T00:47:04.756Z,19.57
2019-04-13T00:49:31.818Z,16.50
2019-04-13T00:51:58.889Z,17.53
2019-04-13T00:54:26.179Z,18.73
2019-04-13T00:56:53.260Z,17.90
2019-04-13T00:59:20.362Z,16.27
2019-04-13T01:01:47.423Z,20.03
2019-04-13T01:04:14.506Z,18.97
2019-04-13T01:06:41.604Z,20.73
2019-04-13T01:09:08.717Z,20.97
2019-04-13T01:11:36.014Z,20.17
2019-04-13T01:14:03.198Z,19.87
2019-04-13T01:16:30.269Z,22.33
2019-04-13T01:18:57.337Z,20.40
2019-04-13T01:21:24.409Z,21.10
2019-04-13T01:23:51.509Z,19.37
2019-04-13T01:26:18.941Z,20.00
2019-04-13T01:28:45.989Z,25.00
2019-04-13T01:31:13.329Z,24.47
2019-04-13T01:33:40.726Z,20.93
2019-04-13T01:36:07.772Z,21.17
2019-04-13T01:38:35.089Z,18.53
2019-04-13T01:41:02.633Z,19.97
2019-04-13T01:43:29.981Z,20.23
2019-04-13T01:45:57.319Z,21.60
2019-04-13T01:48:24.404Z,24.43
2019-04-13T01:50:51.446Z,21.37
2019-04-13T01:53:18.493Z,23.03
2019-04-13T01:55:45.632Z,26.97
2019-04-13T01:58:12.674Z,20.60
2019-04-13T02:01:01.190Z,19.33
2019-04-13T02:03:28.787Z,22.37
2019-04-13T02:05:58.908Z,19.83
2019-04-13T02:08:57.701Z,22.47
2019-04-13T02:11:28.029Z,24.97
2019-04-13T02:13:55.096Z,22.07
2019-04-13T02:16:22.185Z,21.67
2019-04-13T02:18:49.235Z,18.30
2019-04-13T02:21:16.340Z,19.63
2019-04-13T02:23:43.454Z,20.03
2019-04-13T02:26:10.534Z,19.10
2019-04-13T02:28:37.626Z,20.77
2019-04-13T02:31:04.714Z,20.27
2019-04-13T02:33:31.832Z,24.60
2019-04-13T02:35:58.898Z,21.30
2019-04-13T02:38:25.998Z,18.10
2019-04-13T02:40:53.093Z,20.17
2019-04-13T02:43:20.297Z,19.53
2019-04-13T02:45:47.545Z,21.33
2019-04-13T02:48:14.666Z,22.07
2019-04-13T02:50:42.091Z,20.43
2019-04-13T02:53:09.131Z,22.73
2019-04-13T02:55:36.173Z,22.10
2019-04-13T02:58:03.239Z,19.73
2019-04-13T03:00:30.369Z,19.97
2019-04-13T03:02:57.399Z,20.60
2019-04-13T03:05:24.485Z,22.77
2019-04-13T03:07:51.548Z,23.97
2019-04-13T03:10:18.581Z,22.47
2019-04-13T03:12:45.653Z,22.53
2019-04-13T03:15:13.396Z,25.03
2019-04-13T03:18:03.037Z,20.67
2019-04-13T03:20:31.254Z,28.13
2019-04-13T03:22:58.571Z,24.93
2019-04-13T03:25:25.653Z,23.67
2019-04-13T03:27:52.718Z,24.40
2019-04-13T03:30:24.050Z,25.77
2019-04-13T03:32:51.123Z,29.20
2019-04-13T03:35:18.165Z,24.60
2019-04-13T03:37:45.209Z,22.73
2019-04-13T03:40:12.479Z,24.63
2019-04-13T03:42:39.542Z,25.47
2019-04-13T03:45:07.090Z,24.87
2019-04-13T03:47:38.058Z,32.10
2019-04-13T03:50:05.244Z,27.50
2019-04-13T03:52:32.343Z,25.10
2019-04-13T03:54:59.459Z,28.13
2019-04-13T03:57:26.503Z,27.93
2019-04-13T03:59:53.536Z,26.97
2019-04-13T04:02:20.632Z,33.60
2019-04-13T04:04:47.686Z,28.27
2019-04-13T04:07:14.722Z,28.00
2019-04-13T04:09:41.787Z,31.60
2019-04-13T04:12:10.092Z,63.73
2019-04-13T04:14:37.543Z,55.57
2019-04-13T04:17:04.560Z,60.23
2019-04-13T04:19:31.611Z,33.33
2019-04-13T04:21:58.695Z,34.10
2019-04-13T04:24:25.746Z,32.77
2019-04-13T04:26:52.826Z,27.77
2019-04-13T04:29:19.904Z,30.73
2019-04-13T04:31:46.933Z,33.07
2019-04-13T04:34:13.980Z,35.73
2019-04-13T04:36:41.084Z,40.83
2019-04-13T04:39:08.120Z,41.73
2019-04-13T04:41:35.165Z,50.07
2019-04-13T04:44:02.278Z,36.83
2019-04-13T04:46:29.664Z,35.30
2019-04-13T04:48:56.738Z,38.13
2019-04-13T04:51:23.833Z,34.90
2019-04-13T04:53:50.869Z,37.37
2019-04-13T04:56:18.066Z,33.47
2019-04-13T04:58:45.104Z,35.47
2019-04-13T05:01:14.954Z,37.40
2019-04-13T05:03:41.996Z,38.40
2019-04-13T05:06:09.087Z,35.87
2019-04-13T05:08:36.137Z,44.03
2019-04-13T05:11:03.378Z,36.40
2019-04-13T05:13:30.463Z,35.80
2019-04-13T05:15:57.523Z,38.43
2019-04-13T05:18:24.742Z,36.10
2019-04-13T05:20:51.869Z,39.93
2019-04-13T05:23:18.898Z,37.23
2019-04-13T05:25:45.999Z,38.30
2019-04-13T05:28:13.082Z,38.23
2019-04-13T05:30:40.349Z,39.80
2019-04-13T05:33:07.390Z,42.90
2019-04-13T05:35:34.491Z,44.27
2019-04-13T05:38:06.130Z,40.60
2019-04-13T05:40:33.205Z,53.83
2019-04-13T05:43:00.295Z,49.93
2019-04-13T05:45:27.340Z,54.43
2019-04-13T05:47:54.391Z,45.27
2019-04-13T05:50:21.491Z,40.17
2019-04-13T05:52:48.608Z,40.30
2019-04-13T05:55:15.732Z,39.37
2019-04-13T05:57:42.815Z,36.27
2019-04-13T06:00:10.523Z,33.67
2019-04-13T06:02:37.624Z,41.03
2019-04-13T06:05:07.582Z,51.83
2019-04-13T06:07:34.758Z,40.20
2019-04-13T06:10:01.814Z,37.37
2019-04-13T06:12:28.908Z,31.57
2019-04-13T06:14:55.967Z,42.53
2019-04-13T06:17:23.002Z,39.67
2019-04-13T06:19:50.103Z,30.83
2019-04-13T06:22:17.148Z,29.17
2019-04-13T06:24:44.169Z,29.23
2019-04-13T06:27:12.084Z,27.50
2019-04-13T06:29:39.236Z,35.47
2019-04-13T06:32:27.342Z,32.07
2019-04-13T06:35:28.935Z,33.13
2019-04-13T06:37:55.987Z,37.33
2019-04-13T06:40:24.627Z,35.77
2019-04-13T06:42:54.485Z,28.10
2019-04-13T06:45:20.692Z,28.03
2019-04-13T06:47:47.767Z,32.83
2019-04-13T06:50:14.854Z,30.73
2019-04-13T06:52:42.085Z,27.63
2019-04-13T06:55:09.483Z,28.30
2019-04-13T06:57:36.595Z,24.13
2019-04-13T07:00:04.328Z,28.47
2019-04-13T07:02:31.372Z,26.37
2019-04-13T07:04:58.479Z,24.60
2019-04-13T07:07:52.350Z,22.33
2019-04-13T07:10:49.301Z,25.67
2019-04-13T07:13:23.384Z,24.90
2019-04-13T07:15:54.032Z,23.13
2019-04-13T07:18:21.112Z,22.50
2019-04-13T07:20:48.828Z,26.43
2019-04-13T07:23:16.310Z,23.67
2019-04-13T07:25:43.346Z,23.73
2019-04-13T07:28:10.415Z,30.70
2019-04-13T07:30:37.478Z,20.50
2019-04-13T07:33:04.565Z,22.90
2019-04-13T07:35:33.980Z,18.73
2019-04-13T07:38:00.569Z,27.70
2019-04-13T07:40:27.641Z,21.40
2019-04-13T07:42:54.756Z,20.33
2019-04-13T07:45:36.205Z,22.87
2019-04-13T07:48:14.531Z,24.83
2019-04-13T07:50:51.449Z,25.30
2019-04-13T07:53:21.238Z,18.80
2019-04-13T07:55:48.306Z,18.70
2019-04-13T07:58:16.815Z,21.53
2019-04-13T08:00:45.844Z,18.20
2019-04-13T08:03:12.987Z,18.47
2019-04-13T08:05:40.217Z,19.70
2019-04-13T08:08:07.479Z,22.43
2019-04-13T08:10:34.820Z,17.73
2019-04-13T08:13:01.899Z,16.20
2019-04-13T08:15:29.058Z,18.73
2019-04-13T08:17:56.139Z,20.73
2019-04-13T08:20:30.603Z,16.97
2019-04-13T08:22:59.079Z,16.70
2019-04-13T08:25:26.424Z,27.67
2019-04-13T08:27:53.630Z,16.90
2019-04-13T08:30:20.672Z,17.50
2019-04-13T08:32:47.741Z,15.33
2019-04-13T08:35:14.951Z,13.47
2019-04-13T08:37:52.860Z,13.90
2019-04-13T08:40:12.238Z,12.53
2019-04-13T08:42:39.371Z,16.57
2019-04-13T08:45:06.644Z,13.87
2019-04-13T08:47:33.707Z,11.67
2019-04-13T08:50:00.873Z,12.87
2019-04-13T08:52:27.961Z,9.93
2019-04-13T08:54:55.016Z,10.80
2019-04-13T08:57:22.100Z,13.67
2019-04-13T08:59:49.202Z,11.03
2019-04-13T09:02:16.358Z,12.80
2019-04-13T09:04:43.450Z,12.50
2019-04-13T09:07:14.938Z,13.73
2019-04-13T09:09:41.332Z,16.03
2019-04-13T09:12:10.770Z,11.80
2019-04-13T09:14:38.176Z,9.83
2019-04-13T09:17:06.585Z,8.40
2019-04-13T09:19:59.484Z,11.13
2019-04-13T09:22:26.964Z,7.97
2019-04-13T09:24:54.131Z,8.53
2019-04-13T09:27:21.223Z,10.20
2019-04-13T09:29:48.287Z,10.30
2019-04-13T09:32:15.359Z,9.50
2019-04-13T09:34:42.706Z,6.33
2019-04-13T09:37:09.861Z,9.47
2019-04-13T09:39:36.967Z,8.00
2019-04-13T09:42:04.095Z,7.67
2019-04-13T09:44:32.343Z,10.63
2019-04-13T09:47:08.804Z,9.70
2019-04-13T09:49:36.014Z,8.23
2019-04-13T09:52:03.088Z,7.87
2019-04-13T09:54:30.283Z,13.50
2019-04-13T09:56:57.377Z,7.13
2019-04-13T09:59:24.462Z,8.10
2019-04-13T10:01:51.569Z,9.73
2019-04-13T10:04:18.696Z,8.80
2019-04-13T10:06:45.792Z,8.43
2019-04-13T10:09:12.951Z,8.30
2019-04-13T10:12:02.379Z,8.87
2019-04-13T10:14:50.922Z,8.47
2019-04-13T10:17:34.975Z,11.33
2019-04-13T10:20:02.078Z,9.03
2019-04-13T10:22:29.345Z,6.97
2019-04-13T10:24:56.417Z,11.37
2019-04-13T10:27:23.496Z,8.93
2019-04-13T10:29:50.577Z,8.63
2019-04-13T10:32:21.367Z,8.87
2019-04-13T10:34:48.477Z,7.77
2019-04-13T10:37:21.635Z,9.67
2019-04-13T10:39:48.693Z,11.80
2019-04-13T10:42:15.795Z,8.90
2019-04-13T10:44:46.655Z,8.30
2019-04-13T10:47:40.280Z,10.00
2019-04-13T10:50:34.247Z,7.90
2019-04-13T10:53:01.342Z,6.90
2019-04-13T10:55:28.586Z,6.93
2019-04-13T10:57:56.358Z,7.80
2019-04-13T11:00:23.462Z,8.47
2019-04-13T11:02:50.559Z,9.93
2019-04-13T11:05:17.723Z,11.83
2019-04-13T11:07:45.074Z,10.90
2019-04-13T11:10:12.129Z,6.83
2019-04-13T11:12:39.225Z,11.20
2019-04-13T11:15:06.687Z,7.17
2019-04-13T11:17:33.767Z,7.33
2019-04-13T11:20:01.034Z,8.40
2019-04-13T11:22:28.082Z,6.73
2019-04-13T11:24:55.181Z,8.43
2019-04-13T11:27:22.292Z,10.60
2019-04-13T11:29:49.380Z,9.50
2019-04-13T11:32:16.426Z,6.40
2019-04-13T11:34:43.575Z,8.00
2019-04-13T11:37:10.696Z,9.33
2019-04-13T11:39:41.511Z,8.13
2019-04-13T11:42:29.459Z,5.60
2019-04-13T11:45:14.695Z,9.33
2019-04-13T11:47:59.433Z,6.00
2019-04-13T11:50:35.501Z,8.80
2019-04-13T11:53:02.595Z,9.70
2019-04-13T11:55:33.888Z,6.80
2019-04-13T11:57:58.679Z,7.40
2019-04-13T12:00:50.643Z,9.93
2019-04-13T12:03:35.775Z,7.90
2019-04-13T12:06:06.357Z,8.83
2019-04-13T12:08:42.591Z,7.97
2019-04-13T12:11:40.099Z,6.40
2019-04-13T12:14:23.232Z,6.40
2019-04-13T12:17:19.605Z,8.37
2019-04-13T12:19:50.980Z,5.47
2019-04-13T12:22:23.497Z,5.70
2019-04-13T12:25:03.201Z,5.60
2019-04-13T12:27:31.299Z,5.97
2019-04-13T12:29:59.664Z,7.03
2019-04-13T12:32:29.289Z,7.03
2019-04-13T12:34:57.546Z,9.07
2019-04-13T12:37:24.598Z,7.87
2019-04-13T12:40:02.924Z,9.03
2019-04-13T12:42:24.926Z,8.00
2019-04-13T12:44:51.960Z,8.00
2019-04-13T12:47:20.088Z,8.27
2019-04-13T12:49:47.214Z,7.67
2019-04-13T12:52:14.357Z,7.40
2019-04-13T12:54:41.370Z,7.10
2019-04-13T12:57:08.499Z,7.37
2019-04-13T12:59:36.641Z,7.33
2019-04-13T13:02:13.102Z,5.90
2019-04-13T13:04:58.384Z,6.47
2019-04-13T13:07:25.819Z,9.23
2019-04-13T13:09:55.726Z,6.90
2019-04-13T13:12:22.798Z,8.17
2019-04-13T13:14:49.891Z,11.70
2019-04-13T13:17:18.387Z,8.80
2019-04-13T13:19:46.244Z,8.77
2019-04-13T13:22:15.729Z,7.40
2019-04-13T13:24:43.297Z,8.07
2019-04-13T13:27:11.912Z,6.30
2019-04-13T13:29:38.966Z,6.63
2019-04-13T13:32:06.224Z,6.80
2019-04-13T13:34:33.293Z,7.63
2019-04-13T13:37:00.360Z,6.30
2019-04-13T13:39:27.525Z,5.73
2019-04-13T13:41:54.595Z,6.47
2019-04-13T13:44:21.671Z,5.00
2019-04-13T13:46:51.254Z,5.60
2019-04-13T13:49:17.755Z,4.37
2019-04-13T13:51:55.527Z,6.57
2019-04-13T13:54:14.351Z,4.47
2019-04-13T13:56:41.549Z,7.60
2019-04-13T13:59:08.605Z,5.17
2019-04-13T14:01:48.427Z,5.60
2019-04-13T14:04:15.520Z,5.20
2019-04-13T14:06:42.600Z,7.37
2019-04-13T14:09:10.330Z,6.33
2019-04-13T14:11:37.598Z,7.83
2019-04-13T14:14:04.664Z,5.27
2019-04-13T14:16:31.739Z,6.73
2019-04-13T14:18:58.793Z,5.63
2019-04-13T14:21:25.896Z,4.53
2019-04-13T14:23:53.020Z,4.17
2019-04-13T14:26:20.090Z,5.37
2019-04-13T14:28:47.250Z,4.70
2019-04-13T14:31:14.378Z,4.03
2019-04-13T14:33:41.478Z,6.20
2019-04-13T14:36:08.546Z,4.97
2019-04-13T14:38:35.619Z,4.67
2019-04-13T14:41:02.938Z,7.63
2019-04-13T14:43:41.964Z,5.87
2019-04-13T14:46:14.346Z,5.50
2019-04-13T14:48:41.408Z,5.20
2019-04-13T14:51:08.535Z,5.90
2019-04-13T14:53:35.600Z,5.17
2019-04-13T14:56:05.054Z,5.27
2019-04-13T14:58:31.799Z,10.30
2019-04-13T15:00:59.013Z,6.30
2019-04-13T15:03:26.144Z,6.63
2019-04-13T15:05:53.376Z,6.03
2019-04-13T15:08:20.448Z,5.47
2019-04-13T15:10:51.950Z,5.53
2019-04-13T15:13:19.067Z,5.80
2019-04-13T15:15:47.636Z,12.83
2019-04-13T15:18:21.037Z,7.27
2019-04-13T15:20:50.658Z,6.93
2019-04-13T15:23:17.722Z,5.67
2019-04-13T15:25:50.904Z,5.53
2019-04-13T15:28:19.120Z,11.90
2019-04-13T15:30:48.363Z,10.63
2019-04-13T15:33:18.282Z,8.47
2019-04-13T15:35:48.330Z,7.83
2019-04-13T15:38:18.145Z,57.60
2019-04-13T15:40:42.897Z,10.53
2019-04-13T15:43:18.772Z,8.90
2019-04-13T15:45:43.882Z,9.00
2019-04-13T15:48:07.915Z,9.77
2019-04-13T15:50:34.958Z,9.40
2019-04-13T15:53:02.015Z,7.80
2019-04-13T15:55:29.467Z,8.50
2019-04-13T15:57:57.679Z,10.97
2019-04-13T16:00:25.291Z,8.73
2019-04-13T16:02:52.379Z,9.70
2019-04-13T16:05:19.863Z,8.33
2019-04-13T16:07:46.963Z,7.80
2019-04-13T16:10:37.584Z,8.40
2019-04-13T16:13:06.860Z,7.27
2019-04-13T16:15:36.078Z,7.73
2019-04-13T16:18:04.593Z,8.30
2019-04-13T16:20:31.817Z,9.90
2019-04-13T16:22:58.902Z,5.47
2019-04-13T16:25:28.844Z,5.87
2019-04-13T16:28:04.735Z,6.97
2019-04-13T16:31:01.106Z,8.97
2019-04-13T16:33:54.193Z,6.80
2019-04-13T16:36:25.353Z,6.47
2019-04-13T16:39:01.790Z,7.43
2019-04-13T16:41:21.640Z,6.73
2019-04-13T16:43:53.885Z,5.97
2019-04-13T16:46:29.037Z,7.80
2019-04-13T16:49:19.560Z,8.20
2019-04-13T16:52:07.066Z,8.13
2019-04-13T16:54:54.553Z,8.47
2019-04-13T16:57:35.707Z,6.83
2019-04-13T17:00:22.212Z,7.47
2019-04-13T17:03:11.917Z,7.30
2019-04-13T17:05:39.833Z,7.67
2019-04-13T17:08:07.712Z,7.10
2019-04-13T17:10:35.715Z,6.63
2019-04-13T17:13:09.686Z,7.23
2019-04-13T17:15:37.704Z,8.40
2019-04-13T17:18:10.015Z,7.87
2019-04-13T17:20:49.914Z,9.10
2019-04-13T17:23:29.400Z,9.73
2019-04-13T17:26:02.970Z,8.57
2019-04-13T17:28:48.934Z,9.60
2019-04-13T17:31:51.394Z,8.27
2019-04-13T17:34:27.898Z,9.37
2019-04-13T17:36:56.370Z,10.70
2019-04-13T17:39:23.665Z,10.50
2019-04-13T17:42:10.403Z,12.73
2019-04-13T17:44:38.136Z,12.10
2019-04-13T17:47:31.222Z,13.00
2019-04-13T17:50:26.769Z,14.17
2019-04-13T17:53:03.593Z,15.77
2019-04-13T17:55:39.821Z,13.77
2019-04-13T17:58:25.364Z,17.20
2019-04-13T18:01:18.892Z,21.90
2019-04-13T18:04:19.021Z,17.03
2019-04-13T18:07:07.265Z,14.63
2019-04-13T18:10:15.191Z,14.10
2019-04-13T18:13:07.785Z,15.03
2019-04-13T18:15:57.747Z,14.13
2019-04-13T18:18:37.531Z,17.60
2019-04-13T18:21:05.609Z,17.87
2019-04-13T18:23:33.922Z,17.60
2019-04-13T18:26:02.554Z,14.47
2019-04-13T18:28:29.800Z,19.13
2019-04-13T18:30:58.008Z,16.27
2019-04-13T18:33:26.144Z,19.90
2019-04-13T18:35:56.447Z,22.57
2019-04-13T18:38:41.962Z,19.87
2019-04-13T18:41:10.186Z,20.53
2019-04-13T18:43:37.318Z,15.40
2019-04-13T18:46:05.426Z,17.13
2019-04-13T18:48:33.851Z,17.80
2019-04-13T18:51:02.231Z,18.90
2019-04-13T18:53:29.903Z,19.50
2019-04-13T18:55:58.142Z,19.70
2019-04-13T18:58:25.245Z,17.87
2019-04-13T19:00:52.956Z,17.20
2019-04-13T19:03:20.042Z,18.03
2019-04-13T19:05:47.166Z,17.33
2019-04-13T19:08:14.516Z,24.83
2019-04-13T19:10:41.742Z,15.83
2019-04-13T19:13:08.914Z,19.00
2019-04-13T19:15:35.983Z,18.00
2019-04-13T19:18:03.241Z,17.00
2019-04-13T19:20:30.357Z,17.43
2019-04-13T19:22:57.387Z,16.03
2019-04-13T19:25:24.473Z,19.17
2019-04-13T19:27:51.597Z,19.77
2019-04-13T19:30:18.713Z,16.67
2019-04-13T19:32:45.947Z,20.17
2019-04-13T19:35:13.069Z,21.67
2019-04-13T19:37:40.199Z,18.00
2019-04-13T19:40:07.381Z,21.53
2019-04-13T19:42:34.456Z,17.10
2019-04-13T19:45:01.567Z,58.50
2019-04-13T19:47:28.703Z,54.57
2019-04-13T19:49:55.908Z,76.70
2019-04-13T19:52:37.458Z,27.43
2019-04-13T19:55:04.898Z,22.77
2019-04-13T19:57:32.039Z,24.47
2019-04-13T19:59:59.517Z,17.57
2019-04-13T20:02:27.230Z,20.93
2019-04-13T20:04:54.290Z,20.30
2019-04-13T20:07:22.574Z,55.07
2019-04-13T20:09:49.787Z,28.37
2019-04-13T20:12:16.876Z,85.83
2019-04-13T20:14:45.818Z,21.93
2019-04-13T20:17:12.941Z,22.03
2019-04-13T20:19:40.018Z,19.10
2019-04-13T20:22:07.119Z,19.90
2019-04-13T20:24:34.715Z,25.97
2019-04-13T20:27:02.305Z,20.23
2019-04-13T20:29:29.655Z,20.90
2019-04-13T20:31:57.070Z,20.23
2019-04-13T20:34:24.863Z,20.63
2019-04-13T20:36:52.799Z,19.40
2019-04-13T20:39:22.269Z,24.93
2019-04-13T20:41:57.402Z,22.77
2019-04-13T20:44:19.512Z,23.77
2019-04-13T20:46:47.445Z,23.43
2019-04-13T20:49:15.047Z,22.00
2019-04-13T20:51:43.050Z,25.07
2019-04-13T20:54:11.531Z,23.37
2019-04-13T20:56:38.727Z,22.57
2019-04-13T20:59:06.207Z,25.13
2019-04-13T21:01:34.355Z,25.00
2019-04-13T21:04:02.281Z,26.87
2019-04-13T21:06:30.472Z,24.30
2019-04-13T21:08:59.225Z,26.30
2019-04-13T21:11:26.597Z,25.57
2019-04-13T21:14:04.947Z,26.83
2019-04-13T21:16:23.571Z,25.30
2019-04-13T21:18:51.500Z,25.07
2019-04-13T21:21:19.344Z,28.13
2019-04-13T21:23:47.351Z,27.13
2019-04-13T21:26:15.216Z,25.10
2019-04-13T21:28:42.960Z,24.30
2019-04-13T21:31:10.741Z,30.03
2019-04-13T21:33:38.615Z,26.17
2019-04-13T21:36:06.678Z,30.67
2019-04-13T21:38:34.535Z,27.33
2019-04-13T21:41:02.205Z,30.67
2019-04-13T21:43:32.578Z,27.27
2019-04-13T21:45:58.406Z,33.17
2019-04-13T21:48:26.266Z,31.30
2019-04-13T21:51:11.875Z,35.07
2019-04-13T21:53:46.440Z,33.57
2019-04-13T21:56:14.401Z,32.73
2019-04-13T21:58:42.356Z,33.43
2019-04-13T22:01:25.670Z,31.43
2019-04-13T22:03:53.376Z,35.67
2019-04-13T22:06:21.310Z,39.03
2019-04-13T22:08:49.158Z,34.27
2019-04-13T22:11:16.997Z,39.40
2019-04-13T22:13:44.640Z,35.97
2019-04-13T22:16:12.248Z,35.77
2019-04-13T22:18:39.331Z,40.10
2019-04-13T22:21:06.903Z,36.07
2019-04-13T22:23:34.639Z,39.53
2019-04-13T22:26:02.508Z,38.63
2019-04-13T22:28:36.557Z,39.47
2019-04-13T22:31:33.082Z,44.93
2019-04-13T22:34:01.248Z,35.70
2019-04-13T22:36:31.154Z,38.90
2019-04-13T22:38:58.761Z,42.57
2019-04-13T22:41:26.692Z,49.30
2019-04-13T22:43:54.448Z,42.37
2019-04-13T22:46:21.640Z,43.97
2019-04-13T22:48:58.161Z,41.90
2019-04-13T22:51:44.912Z,43.73
2019-04-13T22:54:34.363Z,42.63
2019-04-13T22:57:19.534Z,45.47
2019-04-13T22:59:46.635Z,43.33
2019-04-13T23:02:25.911Z,42.83
2019-04-13T23:04:53.694Z,45.00
2019-04-13T23:07:23.081Z,44.03
2019-04-13T23:09:49.931Z,38.23
2019-04-13T23:12:18.016Z,43.37
2019-04-13T23:14:56.958Z,46.63
2019-04-13T23:17:14.116Z,62.07
2019-04-13T23:19:41.436Z,56.40
2019-04-13T23:22:08.559Z,49.57
2019-04-13T23:24:36.413Z,48.60
2019-04-13T23:27:03.589Z,54.70
2019-04-13T23:29:30.664Z,44.83
2019-04-13T23:31:58.675Z,54.30
2019-04-13T23:34:26.824Z,56.03
2019-04-13T23:37:04.027Z,49.87
2019-04-13T23:39:32.192Z,55.30
2019-04-13T23:42:00.526Z,66.10
2019-04-13T23:44:28.851Z,92.33
2019-04-13T23:46:56.875Z,76.33
2019-04-13T23:49:25.199Z,56.50
2019-04-13T23:51:53.578Z,82.00
2019-04-13T23:54:21.724Z,129.63
2019-04-13T23:57:07.422Z,66.07
2019-04-13T23:59:40.059Z,53.03
